x

Western Hawaii - 205 Nm Sw Of Honolulu, Hi (51003) Wave Buoy

8:50pm - Thu 5th Mar 2015 All times are HST. -10 hours from GMT.

  • Sig Wave height 9.8ft
  • Peak Period 9s
  • Average Period 6s
  • Wind
    22mph, 29mph gusts
  • Sea Temp 78°f
  • Air Temp 75°f
  • Sea Pressure 1013mb
  • Western  Hawaii - 205 Nm Sw Of Honolulu, Hi
  • Western  Hawaii - 205 Nm Sw Of Honolulu, Hi

More Historic Weather Station data

Upgrade to MSW Pro to gain access to the past 30 days of data for over 8000 Wavebouys and Weather Stations around the globe.

Join Pro

Comparision Forecast

View Surf forecast
   
Thu 03/05 8:50pm 10ft 9s 6s 22 29 mph 1013mb 78f 75f
7:50pm 10ft 9s 6s 22 27 mph 1012.5mb 78f 75f
6:50pm 10ft 9s 6s 22 27 mph 1011.8mb 78f 75f
5:50pm 10ft 9s 7s 22 27 mph 1011.3mb 78f 75f
4:50pm 10ft 9s 6s 22 27 mph 1011.2mb 78f 74f
3:50pm 9.5ft 9s 6s 22 27 mph 1010.8mb 78f 75f
2:50pm 10ft 9s 6s 20 25 mph 1011.6mb 78f 75f
1:50pm 9ft 8s 6s 22 27 mph 1012.2mb 78f 75f
12:50pm 9ft 9s 6s 22 27 mph 1013.6mb 78f 75f
11:50am 9ft 8s 7s 20 25 mph 1014.4mb 78f 75f
10:50am 8.5ft 9s 6s 20 25 mph 1014.9mb 78f 75f
9:50am 9ft 8s 6s 20 25 mph 1015.1mb 78f 75f
8:50am 9ft 9s 6s 20 22 mph 1014.9mb 78f 75f
7:50am 9ft 8s 6s 20 25 mph 1014.2mb 78f 75f
6:50am 10ft 9s 7s 20 25 mph 1013.6mb 78f 75f
5:50am 10ft 8s 7s 20 25 mph 1013mb 78f 75f
4:50am 8.5ft 9s 7s 22 27 mph 1012.8mb 78f 75f
3:50am 9ft 9s 6s 16 18 mph 1013.4mb 78f 73f
2:50am 9ft 8s 7s 20 25 mph 1013.6mb 78f 73f
1:50am 9.5ft 8s 7s 11 16 mph 1014.5mb 78f 72f
12:50am 10.5ft 9s 7s 25 29 mph 1015mb 78f 70f
Wed 03/04 11:50pm 9.5ft 8s 7s 16 18 mph 1015.3mb 78f 73f
10:50pm 9ft 8s 6s 16 20 mph 1015.4mb 78f 75f
9:50pm 8.5ft 8s 6s 18 22 mph 1015.1mb 78f 75f
8:50pm 9.5ft 9s 6s 25 29 mph 1014.3mb 78f 74f
7:50pm 9ft 8s 6s 20 25 mph 1013.7mb 78f 76f
6:50pm 9ft 9s 6s 20 22 mph 1013.8mb 78f 76f
5:50pm 9ft 10s 6s 22 27 mph 1012.7mb 78f 76f
4:50pm 10ft 8s 6s 25 27 mph 1012.9mb 78f 75f
3:50pm 9.5ft 8s 6s 25 31 mph 1012.9mb 78f 75f
2:50pm 9ft 8s 6s 25 29 mph 1012.8mb 78f 76f
1:50pm 9ft 8s 6s 25 29 mph 1013.8mb 78f 76f
12:50pm 9.5ft 8s 6s 25 27 mph 1014.2mb 78f 76f
11:50am 9ft 8s 6s 25 27 mph 1015.3mb 78f 76f
10:50am 8.5ft 7s 6s 22 29 mph 1015.7mb 78f 76f
9:50am 9ft 8s 6s 22 25 mph 1016.1mb 78f 75f
8:50am 8ft 7s 6s 20 22 mph 1016.2mb 78f 75f
7:50am 8ft 8s 6s 20 25 mph 1014.9mb 78f 76f
6:50am 9ft 8s 6s 16 20 mph 1014.5mb 78f 73f
5:50am 8.5ft 8s 6s 18 22 mph 1014.2mb 78f 75f
4:50am 9ft 8s 6s 20 22 mph 1013.9mb 78f 75f
3:50am 9ft 8s 6s 22 25 mph 1013.6mb 78f 75f
2:50am 9ft 8s 6s 22 27 mph 1014.1mb 78f 75f
1:50am 8ft 8s 6s 20 25 mph 1015.6mb 78f 76f
12:50am 8ft 9s 6s 20 25 mph 1015.7mb 78f 76f
Tue 03/03 11:50pm 7.5ft 9s 6s 20 25 mph 1016.6mb 78f 77f
10:50pm 8ft 8s 6s 20 25 mph 1016.3mb 78f 77f
9:50pm 7.5ft 7s 6s 18 20 mph 1016.4mb 78f 77f
8:50pm 8ft 8s 6s 20 22 mph 1015.3mb 78f 77f
7:50pm 7.5ft 9s 6s 18 22 mph 1014.9mb 78f 77f
6:50pm 8ft 6s 6s 20 22 mph 1014.4mb 78f 77f
5:50pm 8.5ft 11s 6s 20 25 mph 1013.5mb 78f 77f
4:50pm 8ft 12s 6s 18 22 mph 1013.4mb 78f 77f
3:50pm 9ft 11s 7s 18 22 mph 1013.5mb 78f 77f
2:50pm 8.5ft 9s 7s 18 22 mph 1013.8mb 78f 77f
1:50pm 8ft 8s 6s 20 22 mph 1014.6mb 78f 77f
12:50pm 8ft 12s 7s 18 22 mph 1015.7mb 78f 77f
11:50am 8ft 9s 6s 20 25 mph 1016.2mb 78f 77f
10:50am 8ft 11s 7s 20 25 mph 1016.5mb 78f 77f
9:50am 7ft 12s 6s 20 22 mph 1017mb 78f 77f
8:50am 7ft 8s 6s 20 25 mph 1015.9mb 78f 77f
7:50am 7ft 9s 6s 18 22 mph 1015.6mb 78f 77f
6:50am 7.5ft 12s 7s 18 20 mph 1015.2mb 78f 76f
5:50am 8ft 12s 7s 16 20 mph 1015mb 78f 76f
4:50am 8ft 12s 7s 18 20 mph 1014.7mb 78f 76f
3:50am 8.5ft 12s 7s 18 20 mph 1015mb 78f 77f
2:50am 8.5ft 13s 7s 16 20 mph 1015.6mb 78f 77f
1:50am 9ft 12s 7s 16 20 mph 1016mb 78f 77f
12:50am 9ft 12s 7s 16 20 mph 1016.8mb 78f 77f
Mon 03/02 11:50pm 9ft 11s 7s 16 18 mph 1017.2mb 78f 77f
10:50pm 9ft 13s 7s 18 22 mph 1016.9mb 78f 77f
9:50pm 9ft 13s 7s 20 22 mph 1016.1mb 78f 77f
8:50pm 8.5ft 13s 7s 18 22 mph 1016.5mb 78f 77f
7:50pm 9ft 13s 7s 20 22 mph 1015.6mb 78f 77f
6:50pm 9.5ft 13s 7s 20 25 mph 1015.2mb 78f 77f
5:50pm 9ft 14s 7s 18 22 mph 1014.8mb 78f 77f
4:50pm 8.5ft 11s 7s 18 22 mph 1014.1mb 78f 77f
3:50pm 11ft 13s 7s 18 22 mph 1014.2mb 78f 77f
2:50pm 10ft 14s 7s 20 25 mph 1014.2mb 78f 77f
1:50pm 10ft 13s 7s 20 22 mph 1015.1mb 78f 77f
12:50pm 10ft 13s 7s 22 25 mph 1015.9mb 78f 76f
11:50am 10.5ft 15s 7s 22 25 mph 1016.6mb 78f 77f
10:50am 10ft 14s 7s 22 25 mph 1017.1mb 78f 77f
9:50am 10ft 14s 7s 22 27 mph 1016.9mb 78f 77f
8:50am 10ft 15s 7s 22 27 mph 1016.3mb 78f 76f